Time;durP1;ratioP1;P1;durP2;ratioP2;P2;SDS_P1;SDS_P2;PMS_P1;PMS_P2;Temp;Humidity;BMP_temperature;BMP_pressure;BME280_temperature;BME280_humidity;BME280_pressure;Samples;Min_cycle;Max_cycle;Signal;HPM_P1;HPM_P2
2021/06/05 00:01:23;;;;;;;;;11.75;11.75;;;;;18.09;64.10;101938.31;5055336;28;46503;-81
2021/06/05 00:03:51;;;;;;;;;13.25;11.75;;;;;18.08;64.24;101943.50;5055856;28;45357;-83
2021/06/05 00:06:18;;;;;;;;;12.75;11.75;;;;;17.98;64.31;101930.94;5055774;28;45706;-81
2021/06/05 00:08:45;;;;;;;;;17.50;14.25;;;;;18.15;64.21;101957.66;5056307;28;45465;-81
2021/06/05 00:11:11;;;;;;;;;10.75;10.75;;;;;18.15;64.10;101960.28;5056691;28;46583;-81
2021/06/05 00:13:41;;;;;;;;;11.25;11.25;;;;;18.04;64.39;101965.19;5060118;28;45985;-81
2021/06/05 00:16:10;;;;;;;;;11.00;11.00;;;;;18.06;64.04;101948.69;5061753;28;45644;-81
2021/06/05 00:18:36;;;;;;;;;10.50;7.50;;;;;18.04;63.99;101952.09;5062441;28;45415;-80
2021/06/05 00:21:03;;;;;;;;;10.50;9.75;;;;;18.02;64.27;101959.91;5060452;28;45504;-80
2021/06/05 00:23:29;;;;;;;;;12.50;11.75;;;;;17.83;64.45;101965.34;5059623;28;45937;-81
2021/06/05 00:25:56;;;;;;;;;13.50;13.25;;;;;17.84;64.89;101961.88;5059749;28;45345;-82
2021/06/05 00:28:24;;;;;;;;;10.75;9.75;;;;;17.77;65.14;101971.25;5059632;28;45287;-81
2021/06/05 00:30:50;;;;;;;;;11.75;11.50;;;;;17.80;65.03;101953.03;5057812;28;47816;-81
2021/06/05 00:33:16;;;;;;;;;15.00;11.50;;;;;17.87;64.90;101959.38;5063105;28;45456;-80
2021/06/05 00:35:42;;;;;;;;;13.50;12.75;;;;;17.83;64.77;101945.28;5070552;28;45285;-80
2021/06/05 00:38:09;;;;;;;;;9.00;9.00;;;;;17.88;64.96;101948.94;5075371;28;45282;-80
2021/06/05 00:40:38;;;;;;;;;14.75;13.25;;;;;17.95;64.32;101963.13;5073764;28;45553;-80
2021/06/05 00:43:05;;;;;;;;;14.75;13.25;;;;;17.72;65.09;101968.47;5067582;28;45268;-82
2021/06/05 00:45:34;;;;;;;;;11.50;11.50;;;;;17.78;65.15;101959.94;5061460;28;45442;-81
2021/06/05 00:48:01;;;;;;;;;14.50;12.75;;;;;17.74;65.24;101952.84;5061239;28;45357;-80
2021/06/05 00:50:28;;;;;;;;;13.50;12.25;;;;;17.70;65.26;101954.47;5060372;28;45535;-80
2021/06/05 00:52:55;;;;;;;;;13.25;10.50;;;;;17.64;65.43;101956.88;5059220;28;45244;-80
2021/06/05 00:55:23;;;;;;;;;15.00;14.50;;;;;17.51;66.13;101958.19;5059157;28;45398;-82
2021/06/05 00:57:49;;;;;;;;;12.75;11.25;;;;;17.60;66.12;101955.88;5057786;28;45624;-81
2021/06/05 01:00:49;;;;;;;;;16.25;16.00;;;;;17.65;65.59;101958.66;5058477;28;46128;-82
2021/06/05 01:03:15;;;;;;;;;18.75;16.25;;;;;17.65;65.73;101948.16;5056921;28;45750;-81
2021/06/05 01:05:44;;;;;;;;;15.75;14.75;;;;;17.48;65.91;101943.25;5059098;28;45310;-82
2021/06/05 01:08:12;;;;;;;;;18.50;17.00;;;;;17.56;66.47;101948.75;5059156;28;45327;-82
2021/06/05 01:10:41;;;;;;;;;19.25;15.00;;;;;17.31;66.40;101928.69;5058615;28;45395;-82
2021/06/05 01:13:18;;;;;;;;;16.75;15.75;;;;;17.38;66.36;101935.94;5059163;28;45397;-81
2021/06/05 01:15:50;;;;;;;;;19.25;17.25;;;;;17.40;66.85;101939.47;5059185;28;45357;-81
2021/06/05 01:18:20;;;;;;;;;17.00;17.00;;;;;17.39;66.83;101935.06;5060673;28;45482;-80
2021/06/05 01:21:11;;;;;;;;;16.75;16.00;;;;;17.39;66.95;101939.41;5060983;28;45495;-82
2021/06/05 01:23:47;;;;;;;;;18.00;16.50;;;;;17.33;66.60;101934.88;5058579;28;45860;-82
2021/06/05 01:26:27;;;;;;;;;17.50;15.25;;;;;17.32;66.87;101935.69;5056958;28;45276;-81
2021/06/05 01:29:08;;;;;;;;;16.50;14.00;;;;;17.27;67.31;101934.66;5058721;28;45437;-80
2021/06/05 01:31:37;;;;;;;;;15.75;13.75;;;;;17.20;67.36;101928.31;5057972;28;46590;-82
2021/06/05 01:34:04;;;;;;;;;15.75;14.50;;;;;17.30;67.10;101942.59;5058133;28;45356;-82
2021/06/05 01:36:30;;;;;;;;;20.00;15.75;;;;;17.16;67.43;101922.09;5058168;28;45408;-81
2021/06/05 01:39:00;;;;;;;;;20.00;15.50;;;;;17.31;67.02;101947.91;5058272;28;45509;-82
2021/06/05 01:41:29;;;;;;;;;19.25;15.00;;;;;17.25;67.08;101937.22;5057552;28;46461;-81
2021/06/05 01:43:55;;;;;;;;;17.75;14.75;;;;;17.21;67.21;101932.72;5057995;28;45215;-82
2021/06/05 01:46:28;;;;;;;;;19.75;18.00;;;;;17.24;67.37;101940.66;5056405;28;45364;-81
2021/06/05 01:48:54;;;;;;;;;19.00;15.75;;;;;17.09;67.32;101914.84;5058597;28;45620;-81
2021/06/05 01:51:21;;;;;;;;;20.25;14.75;;;;;17.10;67.58;101945.41;5060001;28;45633;-83
2021/06/05 01:53:57;;;;;;;;;19.00;15.25;;;;;16.96;68.37;101944.91;5056649;28;45930;-82
2021/06/05 01:56:30;;;;;;;;;21.00;16.00;;;;;16.91;68.17;101946.41;5057760;28;45349;-81
2021/06/05 01:58:57;;;;;;;;;17.25;16.75;;;;;16.78;68.70;101934.63;5060286;28;45362;-81
2021/06/05 02:01:23;;;;;;;;;16.00;14.50;;;;;16.81;68.31;101936.44;5057978;28;46545;-81
2021/06/05 02:03:50;;;;;;;;;18.00;17.75;;;;;16.86;68.21;101946.25;5055915;28;45501;-82
2021/06/05 02:06:16;;;;;;;;;20.00;17.50;;;;;16.85;68.41;101957.53;5057492;28;45413;-82
2021/06/05 02:08:42;;;;;;;;;20.25;17.00;;;;;16.92;67.86;101942.09;5057930;28;45511;-81
2021/06/05 02:11:13;;;;;;;;;20.25;18.00;;;;;16.98;68.00;101942.34;5057798;28;45475;-82
2021/06/05 02:13:43;;;;;;;;;20.00;16.50;;;;;16.89;68.02;101934.13;5057642;28;45428;-82
2021/06/05 02:16:21;;;;;;;;;18.75;17.50;;;;;16.79;68.08;101914.59;5058033;28;45358;-81
2021/06/05 02:18:52;;;;;;;;;20.50;17.50;;;;;16.74;68.33;101909.16;5056269;28;45577;-81
2021/06/05 02:21:21;;;;;;;;;15.25;13.75;;;;;16.82;67.98;101910.38;5059051;28;45301;-80
2021/06/05 02:23:53;;;;;;;;;19.75;17.00;;;;;16.84;68.17;101918.25;5058512;28;45315;-81
2021/06/05 02:26:22;;;;;;;;;18.50;17.25;;;;;16.81;68.31;101915.53;5057785;28;45381;-81
2021/06/05 02:28:57;;;;;;;;;17.75;17.50;;;;;16.81;67.61;101925.97;5073389;28;45545;-82
2021/06/05 02:31:24;;;;;;;;;18.75;17.75;;;;;16.62;68.16;101927.91;5057101;28;45422;-82
2021/06/05 02:33:51;;;;;;;;;19.75;17.75;;;;;16.58;68.53;101922.53;5056308;28;45774;-81
2021/06/05 02:36:17;;;;;;;;;22.00;17.25;;;;;16.50;68.49;101935.28;5056799;28;45291;-82
2021/06/05 02:38:46;;;;;;;;;18.75;16.75;;;;;16.58;68.49;101935.59;5057287;28;45568;-80
2021/06/05 02:41:15;;;;;;;;;24.50;20.25;;;;;16.43;68.43;101926.31;5072173;28;46466;-81
2021/06/05 02:43:43;;;;;;;;;19.25;18.75;;;;;16.50;68.78;101935.28;5057489;28;45897;-81
2021/06/05 02:46:25;;;;;;;;;22.50;18.50;;;;;16.37;68.74;101942.66;5057366;28;45339;-82
2021/06/05 02:48:51;;;;;;;;;20.50;20.00;;;;;16.25;69.37;101947.41;5057529;28;45363;-81
2021/06/05 02:51:19;;;;;;;;;22.50;21.75;;;;;16.25;69.93;101934.34;5057285;28;45926;-80
2021/06/05 02:53:44;;;;;;;;;25.75;22.25;;;;;16.29;69.17;101920.56;5058786;28;45884;-81
2021/06/05 02:56:10;;;;;;;;;24.50;19.75;;;;;16.35;68.77;101922.53;5057660;28;45440;-81
2021/06/05 02:58:38;;;;;;;;;21.25;19.50;;;;;16.37;69.38;101921.75;5057801;28;45365;-80
2021/06/05 03:01:06;;;;;;;;;25.25;21.00;;;;;16.27;69.23;101930.06;5057878;28;46632;-80
2021/06/05 03:03:32;;;;;;;;;23.00;21.25;;;;;16.23;69.49;101922.94;5055756;28;45441;-81
2021/06/05 03:05:58;;;;;;;;;24.75;21.50;;;;;16.08;69.33;101912.78;5057219;28;45433;-80
2021/06/05 03:08:27;;;;;;;;;21.50;17.25;;;;;16.22;69.37;101921.16;5057195;28;45629;-80
2021/06/05 03:10:53;;;;;;;;;21.00;19.75;;;;;16.11;68.96;101912.88;5056740;28;45386;-80
2021/06/05 03:13:20;;;;;;;;;22.75;20.25;;;;;15.95;69.44;101898.31;5056326;28;45488;-81
2021/06/05 03:15:47;;;;;;;;;25.75;20.25;;;;;16.09;69.22;101917.16;5057030;28;45350;-80
2021/06/05 03:18:15;;;;;;;;;24.50;18.75;;;;;16.11;69.04;101910.28;5056830;28;45325;-81
2021/06/05 03:20:43;;;;;;;;;25.00;20.25;;;;;15.89;69.52;101909.41;5056828;28;46517;-81
2021/06/05 03:23:10;;;;;;;;;20.75;19.25;;;;;16.00;69.44;101922.00;5057281;28;45427;-80
2021/06/05 03:25:36;;;;;;;;;22.25;18.50;;;;;15.88;69.36;101898.91;5057414;28;45411;-81
2021/06/05 03:28:04;;;;;;;;;22.75;19.50;;;;;16.09;69.29;101925.91;5057100;28;45778;-81
2021/06/05 03:30:29;;;;;;;;;18.75;18.75;;;;;16.17;69.34;101923.59;5056654;28;45430;-81
2021/06/05 03:32:56;;;;;;;;;25.25;22.25;;;;;16.02;69.01;101913.44;5056259;28;45303;-81
2021/06/05 03:35:22;;;;;;;;;20.00;19.25;;;;;16.05;69.32;101910.91;5057215;28;45368;-82
2021/06/05 03:37:48;;;;;;;;;23.00;18.00;;;;;16.15;68.85;101935.69;5057441;28;45446;-80
2021/06/05 03:40:17;;;;;;;;;23.25;19.75;;;;;16.09;69.08;101927.59;5056176;28;46351;-82
2021/06/05 03:42:43;;;;;;;;;17.50;15.75;;;;;16.09;68.52;101922.38;5056831;28;45513;-82
2021/06/05 03:45:10;;;;;;;;;19.00;17.00;;;;;16.03;69.09;101915.22;5056893;28;45347;-81
2021/06/05 03:47:36;;;;;;;;;19.75;17.00;;;;;16.04;69.31;101926.53;5057327;28;45408;-82
2021/06/05 03:50:07;;;;;;;;;21.25;21.00;;;;;16.15;69.07;101930.47;5059160;28;46818;-81
2021/06/05 03:52:32;;;;;;;;;21.00;18.50;;;;;16.04;69.22;101921.31;5063965;28;45273;-81
2021/06/05 03:54:58;;;;;;;;;20.50;16.25;;;;;15.97;69.49;101909.72;5059205;27;45311;-81
2021/06/05 03:57:26;;;;;;;;;19.50;16.00;;;;;16.11;69.18;101925.94;5057822;27;45370;-81
2021/06/05 03:59:54;;;;;;;;;17.50;17.00;;;;;16.04;68.96;101918.69;5059165;28;46186;-82
2021/06/05 04:02:21;;;;;;;;;21.00;19.00;;;;;15.99;69.25;101915.00;5059584;28;45784;-82
2021/06/05 04:04:47;;;;;;;;;17.75;16.25;;;;;15.89;69.14;101917.25;5059078;28;45345;-82
2021/06/05 04:07:13;;;;;;;;;20.25;17.00;;;;;15.90;69.44;101926.00;5059568;28;45337;-82
2021/06/05 04:09:40;;;;;;;;;20.00;17.25;;;;;15.62;69.59;101902.22;5056786;28;45517;-82
2021/06/05 04:12:06;;;;;;;;;18.00;15.50;;;;;15.80;70.14;101924.66;5054795;28;45926;-82
2021/06/05 04:14:32;;;;;;;;;20.25;16.50;;;;;15.84;69.76;101925.69;5055866;28;45444;-82
2021/06/05 04:16:58;;;;;;;;;18.50;16.00;;;;;15.68;70.02;101917.22;5056144;28;45410;-80
2021/06/05 04:19:24;;;;;;;;;19.00;17.00;;;;;15.60;70.48;101929.97;5053932;28;46712;-80
2021/06/05 04:21:50;;;;;;;;;19.25;17.00;;;;;15.59;70.46;101919.47;5055668;28;45318;-80
2021/06/05 04:24:16;;;;;;;;;17.25;13.75;;;;;15.62;69.85;101919.56;5055563;28;45334;-80
2021/06/05 04:26:41;;;;;;;;;19.50;16.75;;;;;15.71;69.84;101935.63;5057150;28;45355;-80
2021/06/05 04:29:07;;;;;;;;;15.75;15.75;;;;;15.61;69.64;101926.53;5071339;27;46152;-81
2021/06/05 04:31:33;;;;;;;;;17.00;15.00;;;;;15.67;69.94;101925.91;5055087;28;45256;-80
2021/06/05 04:33:58;;;;;;;;;19.00;16.50;;;;;15.90;69.53;101942.53;5055783;28;45354;-80
2021/06/05 04:36:24;;;;;;;;;16.75;15.75;;;;;15.89;69.13;101948.59;5055643;28;45568;-80
2021/06/05 04:38:50;;;;;;;;;20.00;14.75;;;;;15.97;69.51;101941.06;5055911;28;45429;-81
2021/06/05 04:41:18;;;;;;;;;16.25;15.50;;;;;16.14;69.04;101960.03;5055762;28;45430;-81
2021/06/05 04:43:44;;;;;;;;;16.75;15.00;;;;;16.32;68.64;101953.75;5054768;28;45260;-82
2021/06/05 04:46:13;;;;;;;;;18.50;14.00;;;;;16.18;68.38;101935.84;5056082;28;45415;-82
2021/06/05 04:48:40;;;;;;;;;18.75;16.75;;;;;16.36;67.65;101956.53;5052272;28;46547;-80
2021/06/05 04:51:06;;;;;;;;;16.75;15.00;;;;;16.31;67.92;101963.34;5055209;28;45417;-80
2021/06/05 04:53:32;;;;;;;;;12.25;11.50;;;;;16.32;68.19;101964.22;5055104;28;45299;-79
2021/06/05 04:55:59;;;;;;;;;18.00;16.50;;;;;16.32;67.39;101956.38;5054992;28;45224;-79
2021/06/05 04:58:24;;;;;;;;;17.50;16.50;;;;;16.31;67.52;101962.41;5057963;28;45346;-79
2021/06/05 05:00:52;;;;;;;;;19.25;15.50;;;;;16.29;67.24;101965.00;5058364;28;45364;-80
2021/06/05 05:03:22;;;;;;;;;20.75;16.00;;;;;16.27;67.30;101965.75;5058543;28;45414;-80
2021/06/05 05:05:49;;;;;;;;;17.50;16.00;;;;;16.18;67.65;101982.88;5058715;28;45457;-81
2021/06/05 05:08:17;;;;;;;;;15.25;14.25;;;;;16.14;67.97;101983.56;5058114;28;45425;-81
2021/06/05 05:10:47;;;;;;;;;17.50;16.00;;;;;16.23;67.39;101989.16;5057030;28;45369;-80
2021/06/05 05:13:16;;;;;;;;;16.75;13.00;;;;;16.12;67.43;101986.94;5056939;27;45502;-80
2021/06/05 05:15:43;;;;;;;;;16.25;15.75;;;;;16.07;67.53;101991.97;5057353;28;45396;-80
2021/06/05 05:18:09;;;;;;;;;17.00;14.00;;;;;16.05;67.74;101991.91;5058430;28;45675;-80
2021/06/05 05:20:38;;;;;;;;;16.00;15.00;;;;;15.93;68.14;102004.44;5057800;28;45715;-81
2021/06/05 05:23:06;;;;;;;;;15.50;15.50;;;;;15.98;67.76;102004.66;5058549;28;45448;-81
2021/06/05 05:25:32;;;;;;;;;16.50;14.50;;;;;15.98;67.65;101989.88;5056919;28;45578;-81
2021/06/05 05:27:59;;;;;;;;;16.25;15.25;;;;;15.96;67.96;102001.09;5057615;28;46308;-80
2021/06/05 05:30:33;;;;;;;;;19.50;16.00;;;;;16.05;67.92;102002.34;5060483;28;45308;-82
2021/06/05 05:32:59;;;;;;;;;14.25;12.00;;;;;16.04;68.01;102002.28;5057014;28;45347;-81
2021/06/05 05:35:25;;;;;;;;;12.00;8.25;;;;;16.00;67.70;102016.94;5058531;28;45386;-80
2021/06/05 05:37:51;;;;;;;;;13.00;12.25;;;;;16.03;68.17;102016.19;5056172;28;46422;-80
2021/06/05 05:40:18;;;;;;;;;14.75;13.50;;;;;16.07;68.03;102016.38;5057963;28;45339;-82
2021/06/05 05:42:44;;;;;;;;;17.75;15.75;;;;;16.00;67.80;102027.41;5057630;28;45413;-80
2021/06/05 05:45:11;;;;;;;;;12.00;11.00;;;;;15.99;68.12;102035.16;5058297;28;45529;-80
2021/06/05 05:47:37;;;;;;;;;12.75;12.75;;;;;16.09;67.57;102043.47;5064085;28;45652;-81
2021/06/05 05:50:08;;;;;;;;;14.25;12.50;;;;;16.04;67.67;102018.84;5076370;27;45517;-80
2021/06/05 05:52:34;;;;;;;;;15.00;14.00;;;;;16.17;67.18;102030.72;5078464;27;45422;-82
2021/06/05 05:55:00;;;;;;;;;14.25;13.50;;;;;16.11;67.70;102042.63;5067150;27;45405;-79
2021/06/05 05:57:25;;;;;;;;;11.50;11.50;;;;;16.08;67.21;102033.84;5058959;28;46476;-80
2021/06/05 05:59:51;;;;;;;;;13.00;11.00;;;;;15.98;67.46;102043.84;5057116;28;45403;-79
2021/06/05 06:02:16;;;;;;;;;12.25;11.25;;;;;16.06;67.46;102037.22;5054900;28;45391;-82
2021/06/05 06:04:42;;;;;;;;;15.00;14.00;;;;;16.17;67.23;102041.19;5057786;28;45323;-79
2021/06/05 06:07:07;;;;;;;;;14.75;12.50;;;;;16.27;67.09;102042.44;5052032;28;46358;-81
2021/06/05 06:09:33;;;;;;;;;12.00;11.25;;;;;16.20;66.42;102045.63;5056709;28;45386;-80
2021/06/05 06:11:59;;;;;;;;;14.50;12.50;;;;;16.18;66.87;102056.03;5053822;28;45435;-80
2021/06/05 06:14:24;;;;;;;;;14.75;12.25;;;;;16.15;66.96;102050.66;5055878;28;45319;-82
2021/06/05 06:16:50;;;;;;;;;12.50;12.50;;;;;16.27;66.58;102063.34;5056915;28;45563;-80
2021/06/05 06:19:16;;;;;;;;;14.50;14.50;;;;;16.02;67.28;102059.72;5057145;28;45572;-80
2021/06/05 06:21:43;;;;;;;;;11.25;11.25;;;;;16.01;66.88;102060.53;5057313;28;45440;-82
2021/06/05 06:24:10;;;;;;;;;12.50;10.75;;;;;16.19;66.95;102049.97;5057389;28;45337;-84
2021/06/05 06:26:37;;;;;;;;;14.75;12.75;;;;;16.18;66.43;102066.47;5063221;28;45413;-80
2021/06/05 06:29:12;;;;;;;;;11.00;9.00;;;;;16.14;67.10;102066.28;5059317;28;45307;-90
2021/06/05 06:31:39;;;;;;;;;11.25;11.25;;;;;16.12;67.14;102074.03;5066092;28;44734;-88
2021/06/05 06:34:05;;;;;;;;;10.50;10.25;;;;;16.21;66.68;102074.41;5063218;28;45646;-88
2021/06/05 06:36:30;;;;;;;;;9.00;7.75;;;;;16.27;66.39;102062.47;5059945;28;47710;-80
2021/06/05 06:38:56;;;;;;;;;12.75;12.50;;;;;16.43;66.26;102063.97;5059680;28;45362;-89
2021/06/05 06:41:30;;;;;;;;;11.00;8.50;;;;;16.58;65.74;102067.19;5059845;28;45395;-86
2021/06/05 06:43:58;;;;;;;;;9.75;9.75;;;;;16.75;65.39;102075.72;5064705;28;45530;-87
2021/06/05 06:46:28;;;;;;;;;12.00;11.00;;;;;16.81;65.20;102077.69;5061513;28;46982;-90
2021/06/05 06:48:57;;;;;;;;;13.50;12.00;;;;;16.91;65.00;102079.81;5069466;28;45291;-88
2021/06/05 06:51:25;;;;;;;;;13.50;11.25;;;;;16.67;65.02;102082.38;5087044;27;44778;-84
2021/06/05 06:53:51;;;;;;;;;13.50;10.50;;;;;16.65;64.98;102079.72;5068862;28;45525;-84
2021/06/05 06:56:18;;;;;;;;;10.50;10.50;;;;;16.78;64.81;102091.53;5064246;28;46941;-83
2021/06/05 06:58:44;;;;;;;;;12.50;10.25;;;;;16.68;64.68;102071.09;5063200;28;45305;-89
2021/06/05 07:01:12;;;;;;;;;10.75;10.00;;;;;16.63;64.94;102088.34;5061607;28;45332;-86
2021/06/05 07:03:38;;;;;;;;;12.25;11.25;;;;;16.38;64.88;102076.84;5066690;28;45537;-84
2021/06/05 07:06:05;;;;;;;;;15.00;14.00;;;;;16.59;64.95;102097.75;5066878;28;45333;-79
2021/06/05 07:08:34;;;;;;;;;11.00;9.50;;;;;16.62;64.57;102092.66;5046647;28;45257;-81
2021/06/05 07:11:09;;;;;;;;;10.25;10.25;;;;;16.59;65.08;102081.19;5062125;28;45224;-77
2021/06/05 07:13:35;;;;;;;;;12.50;12.00;;;;;16.83;64.59;102097.84;5060557;28;45229;-80
2021/06/05 07:16:01;;;;;;;;;11.75;11.75;;;;;16.88;64.38;102103.28;5061982;28;45406;-80
2021/06/05 07:18:31;;;;;;;;;15.25;11.25;;;;;16.96;64.21;102100.97;5060513;28;45343;-83
2021/06/05 07:20:59;;;;;;;;;13.25;11.25;;;;;16.97;64.33;102093.19;5065154;28;45291;-83
2021/06/05 07:23:28;;;;;;;;;14.75;11.75;;;;;17.05;63.86;102111.81;5062531;28;45347;-83
2021/06/05 07:25:56;;;;;;;;;15.50;11.75;;;;;16.95;64.66;102094.84;5057390;28;46309;-85
2021/06/05 07:28:25;;;;;;;;;10.75;10.00;;;;;16.95;64.49;102101.81;5062723;28;45493;-83
2021/06/05 07:30:53;;;;;;;;;10.00;9.00;;;;;16.85;64.55;102096.16;5059554;28;45375;-87
2021/06/05 07:33:20;;;;;;;;;12.75;12.50;;;;;17.02;64.27;102106.47;5063691;28;45564;-90
2021/06/05 07:35:46;;;;;;;;;10.25;10.00;;;;;17.03;63.90;102082.09;5066005;28;47255;-88
2021/06/05 07:38:14;;;;;;;;;10.75;9.75;;;;;17.01;64.21;102086.34;5064737;28;45774;-88
2021/06/05 07:40:42;;;;;;;;;13.50;12.25;;;;;17.28;64.01;102106.56;5064452;28;45327;-87
2021/06/05 07:43:09;;;;;;;;;12.50;11.75;;;;;17.35;63.52;102105.06;5061392;28;45307;-85
2021/06/05 07:45:35;;;;;;;;;13.00;12.50;;;;;17.02;63.63;102093.38;5062368;28;46981;-83
2021/06/05 07:48:01;;;;;;;;;11.00;10.00;;;;;16.89;63.61;102086.75;5061843;28;45512;-86
2021/06/05 07:50:28;;;;;;;;;10.25;9.75;;;;;16.91;63.74;102111.22;5060504;28;45410;-87
2021/06/05 07:52:54;;;;;;;;;11.25;11.25;;;;;16.77;63.84;102102.81;5056895;28;45374;-86
2021/06/05 07:55:20;;;;;;;;;14.75;11.75;;;;;16.78;64.48;102109.84;5058382;28;46696;-87
2021/06/05 07:57:46;;;;;;;;;13.25;11.75;;;;;16.75;64.32;102098.38;5054986;27;45320;-86
2021/06/05 08:00:26;;;;;;;;;12.75;11.50;;;;;16.69;64.00;102102.50;5041850;28;45460;-86
2021/06/05 08:02:52;;;;;;;;;12.25;10.00;;;;;16.94;64.04;102100.91;5058852;28;45296;-85
2021/06/05 08:05:20;;;;;;;;;15.00;12.75;;;;;17.05;63.86;102110.91;5062594;28;47332;-84
2021/06/05 08:07:46;;;;;;;;;11.00;11.00;;;;;17.09;63.76;102107.59;5065136;28;45231;-86
2021/06/05 08:10:12;;;;;;;;;10.75;10.00;;;;;16.91;63.33;102097.25;5060677;28;45366;-85
2021/06/05 08:12:39;;;;;;;;;11.00;10.00;;;;;17.03;63.02;102105.63;5049701;28;45464;-81
2021/06/05 08:15:09;;;;;;;;;10.00;10.00;;;;;16.93;63.85;102119.16;5056186;28;45596;-83
2021/06/05 08:17:35;;;;;;;;;12.00;10.50;;;;;16.85;63.75;102116.22;5047480;28;45445;-83
2021/06/05 08:20:01;;;;;;;;;12.75;10.00;;;;;16.82;64.24;102118.69;5039934;28;45245;-86
2021/06/05 08:22:29;;;;;;;;;12.25;10.00;;;;;16.83;63.75;102116.16;5038492;28;45557;-86
2021/06/05 08:24:54;;;;;;;;;10.75;9.00;;;;;17.07;64.10;102111.88;5051860;28;45838;-83
2021/06/05 08:27:21;;;;;;;;;11.25;11.00;;;;;17.18;63.15;102116.66;5055413;28;45531;-83
2021/06/05 08:29:47;;;;;;;;;13.00;11.00;;;;;17.23;63.20;102109.00;5056461;28;45214;-82
2021/06/05 08:32:13;;;;;;;;;12.25;12.25;;;;;17.37;63.25;102126.97;5058135;28;45252;-84
2021/06/05 08:34:39;;;;;;;;;11.00;10.50;;;;;17.31;62.84;102115.44;5063683;28;45979;-83
2021/06/05 08:37:05;;;;;;;;;11.50;9.75;;;;;17.48;62.89;102120.41;5065952;28;45743;-83
2021/06/05 08:39:31;;;;;;;;;14.00;12.75;;;;;17.43;62.17;102119.34;5062639;28;45311;-82
2021/06/05 08:42:00;;;;;;;;;12.75;10.75;;;;;17.40;62.60;102111.38;5060886;28;45479;-86
2021/06/05 08:44:35;;;;;;;;;12.75;11.00;;;;;17.53;62.37;102108.38;5061101;28;45351;-83
2021/06/05 08:47:10;;;;;;;;;10.75;10.75;;;;;17.58;62.21;102105.94;5059999;28;45902;-84
2021/06/05 08:49:39;;;;;;;;;10.75;10.50;;;;;17.57;61.98;102109.38;5059403;28;45424;-79
2021/06/05 08:52:17;;;;;;;;;10.75;9.50;;;;;17.55;62.10;102097.97;5060544;28;45231;-82
2021/06/05 08:54:53;;;;;;;;;10.25;8.25;;;;;17.59;62.23;102110.34;5058721;28;45424;-84
2021/06/05 08:57:31;;;;;;;;;11.00;8.50;;;;;17.55;62.39;102095.34;5062221;28;45681;-85
2021/06/05 09:00:07;;;;;;;;;10.00;10.00;;;;;17.62;62.06;102089.47;5059898;28;45538;-83
2021/06/05 09:02:33;;;;;;;;;13.75;11.00;;;;;17.70;61.92;102095.00;5060365;28;45304;-83
2021/06/05 09:05:02;;;;;;;;;12.25;11.00;;;;;17.82;61.46;102103.31;5060461;28;46017;-85
2021/06/05 09:07:28;;;;;;;;;11.25;9.00;;;;;17.89;61.68;102097.44;5063213;28;45328;-84
2021/06/05 09:09:58;;;;;;;;;9.75;9.75;;;;;17.94;61.44;102092.34;5063928;28;45332;-81
2021/06/05 09:12:24;;;;;;;;;9.00;9.00;;;;;18.01;61.13;102102.28;5060926;28;45362;-83
2021/06/05 09:14:57;;;;;;;;;9.75;8.75;;;;;18.06;61.08;102095.44;5060462;28;45765;-84
2021/06/05 09:17:47;;;;;;;;;9.00;9.00;;;;;18.28;61.03;102100.53;5061557;28;45306;-85
2021/06/05 09:20:25;;;;;;;;;10.00;9.50;;;;;18.51;60.37;102106.53;5052841;28;45466;-83
2021/06/05 09:22:51;;;;;;;;;8.75;8.00;;;;;18.55;59.79;102106.69;5060114;28;45363;-81
2021/06/05 09:25:20;;;;;;;;;9.00;9.00;;;;;18.55;59.33;102114.56;5060199;28;46036;-84
2021/06/05 09:27:46;;;;;;;;;8.50;8.50;;;;;18.56;59.70;102099.72;5059104;28;45694;-83
2021/06/05 09:30:34;;;;;;;;;9.25;9.25;;;;;18.75;59.08;102101.19;5061371;28;45546;-81
2021/06/05 09:33:03;;;;;;;;;10.75;9.75;;;;;18.84;59.01;102113.72;5065200;28;45453;-85
2021/06/05 09:35:42;;;;;;;;;10.50;9.25;;;;;18.86;58.57;102106.78;5071384;28;45456;-84
2021/06/05 09:38:38;;;;;;;;;11.00;10.00;;;;;18.86;58.49;102115.53;5079924;28;45133;-84
2021/06/05 09:41:08;;;;;;;;;9.00;9.00;;;;;18.78;58.75;102100.41;5079695;28;45326;-84
2021/06/05 09:43:35;;;;;;;;;11.50;10.00;;;;;18.84;58.66;102106.72;5069035;28;44705;-83
2021/06/05 09:46:09;;;;;;;;;11.00;8.50;;;;;19.06;58.66;102109.16;5067081;28;45607;-84
2021/06/05 09:48:44;;;;;;;;;12.50;11.50;;;;;19.23;58.03;102110.56;5065395;28;46369;-82
2021/06/05 09:51:30;;;;;;;;;8.75;8.75;;;;;19.22;57.64;102121.03;5062399;28;45394;-84
2021/06/05 09:54:04;;;;;;;;;6.75;6.75;;;;;19.23;57.40;102113.19;5061131;28;45503;-81
2021/06/05 09:56:34;;;;;;;;;6.75;5.00;;;;;19.39;57.39;102122.41;5061013;28;46449;-86
2021/06/05 09:59:06;;;;;;;;;10.50;7.00;;;;;19.37;56.80;102124.13;5060439;28;45375;-79
2021/06/05 10:01:36;;;;;;;;;8.75;7.00;;;;;19.40;56.45;102118.06;5057174;28;45473;-80
2021/06/05 10:04:08;;;;;;;;;10.25;10.00;;;;;19.53;56.41;102119.28;5057724;28;45605;-83
2021/06/05 10:06:54;;;;;;;;;7.25;6.75;;;;;19.64;56.48;102113.50;5058541;28;46242;-81
2021/06/05 10:09:34;;;;;;;;;12.50;11.25;;;;;19.86;56.03;102116.78;5057887;28;45454;-80
2021/06/05 10:12:02;;;;;;;;;11.75;11.00;;;;;19.97;55.45;102119.69;5060968;28;45256;-81
2021/06/05 10:14:43;;;;;;;;;10.25;9.00;;;;;19.80;55.83;102116.56;5059906;28;45432;-82
2021/06/05 10:17:22;;;;;;;;;11.00;9.25;;;;;19.83;56.15;102103.50;5075120;28;47327;-84
2021/06/05 10:19:53;;;;;;;;;10.75;9.00;;;;;19.82;56.11;102119.22;5073325;28;45426;-86
2021/06/05 10:22:22;;;;;;;;;9.75;9.50;;;;;19.80;56.03;102116.56;5066289;28;45420;-78
2021/06/05 10:25:26;;;;;;;;;8.50;7.75;;;;;19.78;55.44;102113.91;5059511;28;45567;-78
2021/06/05 10:27:53;;;;;;;;;9.00;8.25;;;;;19.63;56.00;102116.06;5035234;28;45685;-77
2021/06/05 10:30:36;;;;;;;;;6.50;6.50;;;;;19.65;55.67;102107.38;5035708;28;45900;-77
2021/06/05 10:33:03;;;;;;;;;8.50;7.75;;;;;19.75;55.65;102123.44;5048068;28;45320;-74
2021/06/05 10:35:39;;;;;;;;;12.75;11.25;;;;;19.75;56.44;102120.81;5056703;28;45342;-76
2021/06/05 10:38:36;;;;;;;;;14.50;9.50;;;;;19.57;55.93;102126.44;5056976;28;46127;-81
2021/06/05 10:41:02;;;;;;;;;10.25;8.25;;;;;19.30;56.84;102128.28;5063131;28;45650;-79
2021/06/05 10:43:28;;;;;;;;;10.75;9.50;;;;;19.41;56.74;102118.09;5064115;28;44603;-77
2021/06/05 10:45:57;;;;;;;;;9.50;9.50;;;;;19.54;57.05;102116.72;5060217;28;45493;-79
2021/06/05 10:48:26;;;;;;;;;8.25;8.25;;;;;19.70;56.56;102118.06;5058264;28;46244;-79
2021/06/05 10:51:08;;;;;;;;;9.75;9.75;;;;;19.74;56.58;102109.38;5057024;28;45675;-83
2021/06/05 10:54:03;;;;;;;;;14.00;11.25;;;;;19.74;56.67;102122.53;5056113;28;45480;-76
2021/06/05 10:56:35;;;;;;;;;10.00;10.00;;;;;19.80;56.33;102120.09;5057790;28;45829;-78
2021/06/05 10:59:02;;;;;;;;;13.25;13.25;;;;;19.83;56.23;102114.00;5057235;28;45564;-80
2021/06/05 11:01:40;;;;;;;;;14.25;12.00;;;;;19.87;56.40;102115.91;5038804;28;45348;-79
2021/06/05 11:04:26;;;;;;;;;12.25;11.50;;;;;19.90;56.53;102110.72;5052776;28;45330;-81
2021/06/05 11:06:52;;;;;;;;;13.25;10.75;;;;;19.99;56.50;102115.34;5037023;28;45295;-80
2021/06/05 11:09:29;;;;;;;;;12.50;11.75;;;;;19.91;56.51;102117.78;5037057;28;45387;-82
2021/06/05 11:11:59;;;;;;;;;13.75;13.75;;;;;19.85;56.17;102111.41;5038506;28;45674;-79
2021/06/05 11:14:37;;;;;;;;;12.25;10.50;;;;;19.75;56.83;102119.06;5042790;28;45323;-81
2021/06/05 11:17:28;;;;;;;;;21.50;16.50;;;;;19.78;57.02;102123.50;5057770;28;45424;-78
2021/06/05 11:20:06;;;;;;;;;11.00;9.75;;;;;19.74;56.47;102113.78;5054590;28;45759;-79
2021/06/05 11:22:50;;;;;;;;;10.75;10.00;;;;;19.69;56.49;102110.09;5060924;28;46040;-80